Terminal Aerodrome Forecast
Issued by NWS

Home | Current Version | Previous Version | Text Only | Print | Product List | Glossary On
Versions: 1 2 3 4 5 6 7 8 9 10 11 12 13 14 15 16
981
FTUS42 KFFC 231740
TAFPDK
TAF
KPDK 231740Z 2318/2418 07006KT P6SM VCSH SCT050
     FM240100 00000KT P6SM SCT250
     FM241600 08010KT P6SM SCT040=

USA.gov is the U.S. government's official web portal to all federal, state and local government web resources and services.